sensor_id;sensor_type;location;lat;lon;timestamp;pressure;altitude;pressure_sealevel;temperature;humidity
77869;BME280;67231;59.144;37.934;2023-06-05T00:02:19;100152.97;;;10.54;69.25
77869;BME280;67231;59.144;37.934;2023-06-05T00:04:45;100157.44;;;10.53;68.68
77869;BME280;67231;59.144;37.934;2023-06-05T00:07:12;100162.59;;;10.55;68.73
77869;BME280;67231;59.144;37.934;2023-06-05T00:09:38;100162.75;;;10.53;69.62
77869;BME280;67231;59.144;37.934;2023-06-05T00:12:05;100163.72;;;10.52;69.13
77869;BME280;67231;59.144;37.934;2023-06-05T00:14:31;100166.91;;;10.56;69.75
77869;BME280;67231;59.144;37.934;2023-06-05T00:16:57;100168.72;;;10.55;69.56
77869;BME280;67231;59.144;37.934;2023-06-05T00:19:23;100178.66;;;10.53;69.99
77869;BME280;67231;59.144;37.934;2023-06-05T00:21:49;100170.56;;;10.55;69.46
77869;BME280;67231;59.144;37.934;2023-06-05T00:24:17;100179.19;;;10.57;69.79
77869;BME280;67231;59.144;37.934;2023-06-05T00:26:43;100167.06;;;10.54;70.08
77869;BME280;67231;59.144;37.934;2023-06-05T00:29:09;100173.38;;;10.53;69.59
77869;BME280;67231;59.144;37.934;2023-06-05T00:31:36;100172.53;;;10.53;69.79
77869;BME280;67231;59.144;37.934;2023-06-05T00:34:02;100170.72;;;10.53;70.30
77869;BME280;67231;59.144;37.934;2023-06-05T00:36:28;100168.88;;;10.54;70.26
77869;BME280;67231;59.144;37.934;2023-06-05T00:38:57;100165.41;;;10.53;69.61
77869;BME280;67231;59.144;37.934;2023-06-05T00:41:23;100171.38;;;10.55;70.18
77869;BME280;67231;59.144;37.934;2023-06-05T00:43:49;100170.41;;;10.56;69.79
77869;BME280;67231;59.144;37.934;2023-06-05T00:46:16;100168.72;;;10.55;70.39
77869;BME280;67231;59.144;37.934;2023-06-05T00:48:42;100178.97;;;10.50;70.04
77869;BME280;67231;59.144;37.934;2023-06-05T00:51:09;100174.47;;;10.51;70.78
77869;BME280;67231;59.144;37.934;2023-06-05T00:53:42;100171.81;;;10.51;70.91
77869;BME280;67231;59.144;37.934;2023-06-05T00:56:09;100177.28;;;10.49;70.25
77869;BME280;67231;59.144;37.934;2023-06-05T00:58:36;100175.47;;;10.50;70.47
77869;BME280;67231;59.144;37.934;2023-06-05T01:01:02;100172.84;;;10.50;70.53
77869;BME280;67231;59.144;37.934;2023-06-05T01:03:30;100186.09;;;10.50;70.57
77869;BME280;67231;59.144;37.934;2023-06-05T01:05:59;100182.59;;;10.49;70.10
77869;BME280;67231;59.144;37.934;2023-06-05T01:08:33;100178.28;;;10.48;70.78
77869;BME280;67231;59.144;37.934;2023-06-05T01:13:49;100170.19;;;10.50;70.38
77869;BME280;67231;59.144;37.934;2023-06-05T01:16:18;100178.28;;;10.48;71.18
77869;BME280;67231;59.144;37.934;2023-06-05T01:18:45;100175.78;;;10.47;70.87
77869;BME280;67231;59.144;37.934;2023-06-05T01:21:13;100177.28;;;10.49;71.03
77869;BME280;67231;59.144;37.934;2023-06-05T01:23:42;100174.63;;;10.49;70.76
77869;BME280;67231;59.144;37.934;2023-06-05T01:26:18;100171.69;;;10.52;71.47
77869;BME280;67231;59.144;37.934;2023-06-05T01:28:49;100171.38;;;10.55;71.35
77869;BME280;67231;59.144;37.934;2023-06-05T01:31:18;100175.88;;;10.55;71.06
77869;BME280;67231;59.144;37.934;2023-06-05T01:33:51;100168.72;;;10.55;71.10
77869;BME280;67231;59.144;37.934;2023-06-05T01:36:23;100173.88;;;10.57;70.87
77869;BME280;67231;59.144;37.934;2023-06-05T01:38:51;100176.41;;;10.59;71.15
77869;BME280;67231;59.144;37.934;2023-06-05T01:41:20;100171.91;;;10.59;71.46
77869;BME280;67231;59.144;37.934;2023-06-05T01:43:47;100169.25;;;10.59;71.40
77869;BME280;67231;59.144;37.934;2023-06-05T01:46:18;100165.09;;;10.56;71.80
77869;BME280;67231;59.144;37.934;2023-06-05T01:48:46;100158.13;;;10.55;71.41
77869;BME280;67231;59.144;37.934;2023-06-05T01:51:12;100161.44;;;10.57;71.36
77869;BME280;67231;59.144;37.934;2023-06-05T01:53:39;100164.81;;;10.60;72.17
77869;BME280;67231;59.144;37.934;2023-06-05T01:56:05;100165.78;;;10.59;72.42
77869;BME280;67231;59.144;37.934;2023-06-05T01:58:34;100166.06;;;10.55;72.87
77869;BME280;67231;59.144;37.934;2023-06-05T02:01:02;100159.84;;;10.47;72.92
77869;BME280;67231;59.144;37.934;2023-06-05T02:03:29;100165.31;;;10.45;72.91
77869;BME280;67231;59.144;37.934;2023-06-05T02:05:55;100158.47;;;10.43;73.58
77869;BME280;67231;59.144;37.934;2023-06-05T02:08:22;100158.75;;;10.39;73.16
77869;BME280;67231;59.144;37.934;2023-06-05T02:10:49;100166.72;;;10.39;73.41
77869;BME280;67231;59.144;37.934;2023-06-05T02:13:16;100158.63;;;10.41;73.92
77869;BME280;67231;59.144;37.934;2023-06-05T02:15:46;100162.25;;;10.40;73.92
77869;BME280;67231;59.144;37.934;2023-06-05T02:18:12;100163.09;;;10.41;74.34
77869;BME280;67231;59.144;37.934;2023-06-05T02:20:41;100163.09;;;10.41;74.15
77869;BME280;67231;59.144;37.934;2023-06-05T02:23:10;100165.31;;;10.45;74.08
77869;BME280;67231;59.144;37.934;2023-06-05T02:25:37;100166.66;;;10.49;74.20
77869;BME280;67231;59.144;37.934;2023-06-05T02:28:04;100163.88;;;10.51;74.34
77869;BME280;67231;59.144;37.934;2023-06-05T02:30:30;100158.31;;;10.44;74.43
77869;BME280;67231;59.144;37.934;2023-06-05T02:32:58;100168.69;;;10.37;74.32
77869;BME280;67231;59.144;37.934;2023-06-05T02:35:27;100163.81;;;10.33;75.44
77869;BME280;67231;59.144;37.934;2023-06-05T02:37:55;100164.81;;;10.22;75.12
77869;BME280;67231;59.144;37.934;2023-06-05T02:40:23;100165.53;;;10.14;76.08
77869;BME280;67231;59.144;37.934;2023-06-05T02:42:50;100164.72;;;10.14;75.54
77869;BME280;67231;59.144;37.934;2023-06-05T02:45:17;100163.50;;;10.08;76.34
77869;BME280;67231;59.144;37.934;2023-06-05T02:47:44;100165.44;;;10.06;76.42
77869;BME280;67231;59.144;37.934;2023-06-05T02:50:11;100161.81;;;10.07;76.99
77869;BME280;67231;59.144;37.934;2023-06-05T02:52:42;100162.94;;;10.05;76.75
77869;BME280;67231;59.144;37.934;2023-06-05T02:55:14;100169.38;;;10.02;76.56
77869;BME280;67231;59.144;37.934;2023-06-05T02:57:41;100176.66;;;10.00;76.69
77869;BME280;67231;59.144;37.934;2023-06-05T03:00:12;100170.63;;;9.98;76.96
77869;BME280;67231;59.144;37.934;2023-06-05T03:02:44;100170.78;;;9.96;77.74
77869;BME280;67231;59.144;37.934;2023-06-05T03:05:18;100177.63;;;9.99;77.79
77869;BME280;67231;59.144;37.934;2023-06-05T03:07:52;100175.53;;;9.93;78.10
77869;BME280;67231;59.144;37.934;2023-06-05T03:10:20;100178.06;;;9.84;77.87
77869;BME280;67231;59.144;37.934;2023-06-05T03:12:47;100179.03;;;9.83;78.38
77869;BME280;67231;59.144;37.934;2023-06-05T03:15:14;100189.22;;;9.88;78.73
77869;BME280;67231;59.144;37.934;2023-06-05T03:17:42;100176.09;;;9.87;78.60
77869;BME280;67231;59.144;37.934;2023-06-05T03:20:09;100179.16;;;9.92;78.54
77869;BME280;67231;59.144;37.934;2023-06-05T03:22:36;100184.16;;;9.95;78.09
77869;BME280;67231;59.144;37.934;2023-06-05T03:25:03;100182.53;;;9.94;78.32
77869;BME280;67231;59.144;37.934;2023-06-05T03:27:32;100183.34;;;9.94;78.28
77869;BME280;67231;59.144;37.934;2023-06-05T03:29:58;100191.97;;;9.96;78.17
77869;BME280;67231;59.144;37.934;2023-06-05T03:32:25;100182.53;;;9.94;78.07
77869;BME280;67231;59.144;37.934;2023-06-05T03:34:51;100189.63;;;9.93;78.86
77869;BME280;67231;59.144;37.934;2023-06-05T03:37:19;100186.13;;;9.93;78.63
77869;BME280;67231;59.144;37.934;2023-06-05T03:39:47;100193.13;;;9.94;78.89
77869;BME280;67231;59.144;37.934;2023-06-05T03:42:14;100192.25;;;9.93;78.84
77869;BME280;67231;59.144;37.934;2023-06-05T03:44:40;100187.81;;;9.94;78.78
77869;BME280;67231;59.144;37.934;2023-06-05T03:47:07;100187.53;;;9.97;78.64
77869;BME280;67231;59.144;37.934;2023-06-05T03:49:38;100179.97;;;10.02;78.35
77869;BME280;67231;59.144;37.934;2023-06-05T03:52:15;100181.63;;;10.03;78.86
77869;BME280;67231;59.144;37.934;2023-06-05T03:54:42;100185.53;;;10.09;78.87
77869;BME280;67231;59.144;37.934;2023-06-05T03:57:13;100191.91;;;10.16;79.11
77869;BME280;67231;59.144;37.934;2023-06-05T03:59:42;100185.34;;;10.20;78.12
77869;BME280;67231;59.144;37.934;2023-06-05T04:02:09;100191.34;;;10.22;77.80
77869;BME280;67231;59.144;37.934;2023-06-05T04:04:35;100193.56;;;10.27;77.78
77869;BME280;67231;59.144;37.934;2023-06-05T04:07:01;100193.00;;;10.33;78.35
77869;BME280;67231;59.144;37.934;2023-06-05T04:09:28;100196.59;;;10.32;78.16
77869;BME280;67231;59.144;37.934;2023-06-05T04:11:56;100194.09;;;10.30;77.67
77869;BME280;67231;59.144;37.934;2023-06-05T04:14:23;100194.22;;;10.29;77.83
77869;BME280;67231;59.144;37.934;2023-06-05T04:16:49;100190.91;;;10.27;78.12
77869;BME280;67231;59.144;37.934;2023-06-05T04:19:20;100185.16;;;10.31;78.44
77869;BME280;67231;59.144;37.934;2023-06-05T04:21:49;100194.69;;;10.34;77.65
77869;BME280;67231;59.144;37.934;2023-06-05T04:24:17;100191.03;;;10.35;77.46
77869;BME280;67231;59.144;37.934;2023-06-05T04:26:44;100194.69;;;10.34;77.46
77869;BME280;67231;59.144;37.934;2023-06-05T04:29:11;100196.34;;;10.35;77.83
77869;BME280;67231;59.144;37.934;2023-06-05T04:31:45;100189.91;;;10.37;77.58
77869;BME280;67231;59.144;37.934;2023-06-05T04:34:13;100187.25;;;10.37;77.89
77869;BME280;67231;59.144;37.934;2023-06-05T04:36:40;100192.97;;;10.43;77.47
77869;BME280;67231;59.144;37.934;2023-06-05T04:39:08;100194.00;;;10.60;77.69
77869;BME280;67231;59.144;37.934;2023-06-05T04:41:41;100193.59;;;10.82;77.02
77869;BME280;67231;59.144;37.934;2023-06-05T04:44:15;100188.66;;;10.87;76.62
77869;BME280;67231;59.144;37.934;2023-06-05T04:46:44;100194.66;;;10.89;76.45
77869;BME280;67231;59.144;37.934;2023-06-05T04:49:13;100190.72;;;10.93;76.69
77869;BME280;67231;59.144;37.934;2023-06-05T04:51:41;100192.78;;;11.00;76.37
77869;BME280;67231;59.144;37.934;2023-06-05T04:54:09;100200.44;;;11.03;76.21
77869;BME280;67231;59.144;37.934;2023-06-05T04:56:36;100200.91;;;11.16;75.69
77869;BME280;67231;59.144;37.934;2023-06-05T04:59:04;100200.97;;;11.24;76.11
77869;BME280;67231;59.144;37.934;2023-06-05T05:01:31;100201.25;;;11.39;75.70
77869;BME280;67231;59.144;37.934;2023-06-05T05:04:00;100202.25;;;11.56;75.38
77869;BME280;67231;59.144;37.934;2023-06-05T05:06:26;100193.81;;;11.87;73.75
77869;BME280;67231;59.144;37.934;2023-06-05T05:08:53;100202.19;;;12.18;73.42
77869;BME280;67231;59.144;37.934;2023-06-05T05:11:20;100205.06;;;12.33;72.76
77869;BME280;67231;59.144;37.934;2023-06-05T05:13:47;100193.84;;;12.48;72.02
77869;BME280;67231;59.144;37.934;2023-06-05T05:16:14;100203.84;;;12.54;71.68
77869;BME280;67231;59.144;37.934;2023-06-05T05:18:43;100205.47;;;12.47;71.84
77869;BME280;67231;59.144;37.934;2023-06-05T05:21:10;100205.19;;;12.24;72.95
77869;BME280;67231;59.144;37.934;2023-06-05T05:23:37;100211.06;;;12.01;73.18
77869;BME280;67231;59.144;37.934;2023-06-05T05:26:03;100198.53;;;11.93;73.12
77869;BME280;67231;59.144;37.934;2023-06-05T05:28:30;100198.94;;;12.07;73.15
77869;BME280;67231;59.144;37.934;2023-06-05T05:30:57;100199.88;;;12.24;72.12
77869;BME280;67231;59.144;37.934;2023-06-05T05:33:24;100193.09;;;12.37;71.70
77869;BME280;67231;59.144;37.934;2023-06-05T05:35:51;100192.13;;;12.38;71.75
77869;BME280;67231;59.144;37.934;2023-06-05T05:38:18;100188.84;;;12.53;70.90
77869;BME280;67231;59.144;37.934;2023-06-05T05:40:44;100193.75;;;14.70;66.69
77869;BME280;67231;59.144;37.934;2023-06-05T05:43:11;100199.50;;;17.52;61.52
77869;BME280;67231;59.144;37.934;2023-06-05T05:45:37;100195.88;;;19.59;58.74
77869;BME280;67231;59.144;37.934;2023-06-05T05:48:05;100212.16;;;21.35;55.42
77869;BME280;67231;59.144;37.934;2023-06-05T05:50:31;100211.28;;;20.58;54.62
77869;BME280;67231;59.144;37.934;2023-06-05T05:52:58;100214.16;;;18.41;56.83
77869;BME280;67231;59.144;37.934;2023-06-05T05:55:24;100212.59;;;16.97;58.36
77869;BME280;67231;59.144;37.934;2023-06-05T05:57:51;100207.75;;;16.11;60.10
77869;BME280;67231;59.144;37.934;2023-06-05T06:00:18;100206.25;;;15.93;60.27
77869;BME280;67231;59.144;37.934;2023-06-05T06:02:44;100207.47;;;16.20;59.38
77869;BME280;67231;59.144;37.934;2023-06-05T06:05:11;100202.09;;;15.91;59.32
77869;BME280;67231;59.144;37.934;2023-06-05T06:07:38;100212.06;;;15.36;59.96
77869;BME280;67231;59.144;37.934;2023-06-05T06:10:07;100210.47;;;15.26;60.32
77869;BME280;67231;59.144;37.934;2023-06-05T06:12:34;100215.78;;;16.11;58.69
77869;BME280;67231;59.144;37.934;2023-06-05T06:15:00;100201.94;;;17.03;57.24
77869;BME280;67231;59.144;37.934;2023-06-05T06:17:31;100203.81;;;17.74;55.43
77869;BME280;67231;59.144;37.934;2023-06-05T06:19:58;100204.56;;;17.18;56.52
77869;BME280;67231;59.144;37.934;2023-06-05T06:22:24;100209.59;;;16.25;57.23
77869;BME280;67231;59.144;37.934;2023-06-05T06:24:52;100196.88;;;15.36;59.48
77869;BME280;67231;59.144;37.934;2023-06-05T06:27:20;100207.41;;;14.83;60.16
77869;BME280;67231;59.144;37.934;2023-06-05T06:29:51;100212.53;;;14.45;61.35
77869;BME280;67231;59.144;37.934;2023-06-05T06:32:20;100204.16;;;14.09;62.35
77869;BME280;67231;59.144;37.934;2023-06-05T06:34:48;100215.53;;;13.78;63.27
77869;BME280;67231;59.144;37.934;2023-06-05T06:37:15;100220.72;;;13.55;63.49
77869;BME280;67231;59.144;37.934;2023-06-05T06:39:43;100216.38;;;13.45;63.66
77869;BME280;67231;59.144;37.934;2023-06-05T06:42:10;100226.00;;;13.22;63.79
77869;BME280;67231;59.144;37.934;2023-06-05T06:44:40;100214.28;;;12.98;64.77
77869;BME280;67231;59.144;37.934;2023-06-05T06:47:06;100220.09;;;12.93;64.69
77869;BME280;67231;59.144;37.934;2023-06-05T06:49:34;100215.63;;;12.94;64.86
77869;BME280;67231;59.144;37.934;2023-06-05T06:52:05;100215.66;;;13.10;64.69
77869;BME280;67231;59.144;37.934;2023-06-05T06:54:32;100210.72;;;13.40;64.12
77869;BME280;67231;59.144;37.934;2023-06-05T06:56:59;100216.00;;;13.98;62.26
77869;BME280;67231;59.144;37.934;2023-06-05T06:59:25;100202.34;;;14.49;61.40
77869;BME280;67231;59.144;37.934;2023-06-05T07:02:12;100201.81;;;14.62;60.43
77869;BME280;67231;59.144;37.934;2023-06-05T07:04:40;100210.69;;;15.17;59.44
77869;BME280;67231;59.144;37.934;2023-06-05T07:07:11;100205.97;;;16.48;57.71
77869;BME280;67231;59.144;37.934;2023-06-05T07:09:42;100210.22;;;16.57;56.72
77869;BME280;67231;59.144;37.934;2023-06-05T07:12:10;100219.13;;;17.80;55.44
77869;BME280;67231;59.144;37.934;2023-06-05T07:14:40;100214.25;;;19.09;52.90
77869;BME280;67231;59.144;37.934;2023-06-05T07:17:07;100214.06;;;19.04;51.31
77869;BME280;67231;59.144;37.934;2023-06-05T07:19:35;100212.03;;;19.39;50.88
77869;BME280;67231;59.144;37.934;2023-06-05T07:22:04;100220.03;;;20.40;48.75
77869;BME280;67231;59.144;37.934;2023-06-05T07:24:32;100226.88;;;20.49;48.30
77869;BME280;67231;59.144;37.934;2023-06-05T07:27:02;100223.88;;;20.84;46.82
77869;BME280;67231;59.144;37.934;2023-06-05T07:29:29;100230.56;;;20.61;46.75
77869;BME280;67231;59.144;37.934;2023-06-05T07:31:57;100219.31;;;19.79;47.26
77869;BME280;67231;59.144;37.934;2023-06-05T07:34:25;100224.03;;;19.50;47.70
77869;BME280;67231;59.144;37.934;2023-06-05T07:36:52;100218.63;;;19.23;48.44
77869;BME280;67231;59.144;37.934;2023-06-05T07:39:20;100222.63;;;18.79;48.69
77869;BME280;67231;59.144;37.934;2023-06-05T07:41:47;100208.63;;;18.49;49.13
77869;BME280;67231;59.144;37.934;2023-06-05T07:44:18;100215.69;;;18.15;49.68
77869;BME280;67231;59.144;37.934;2023-06-05T07:46:47;100222.53;;;18.17;49.65
77869;BME280;67231;59.144;37.934;2023-06-05T07:49:14;100224.66;;;18.29;49.52
77869;BME280;67231;59.144;37.934;2023-06-05T07:51:44;100218.00;;;18.25;49.40
77869;BME280;67231;59.144;37.934;2023-06-05T07:54:13;100225.75;;;18.06;49.76
77869;BME280;67231;59.144;37.934;2023-06-05T07:56:39;100221.25;;;17.85;50.32
77869;BME280;67231;59.144;37.934;2023-06-05T07:59:07;100223.78;;;17.43;50.95
77869;BME280;67231;59.144;37.934;2023-06-05T08:01:34;100220.44;;;16.83;52.29
77869;BME280;67231;59.144;37.934;2023-06-05T08:04:05;100222.63;;;17.31;51.72
77869;BME280;67231;59.144;37.934;2023-06-05T08:06:31;100222.00;;;18.00;50.65
77869;BME280;67231;59.144;37.934;2023-06-05T08:08:59;100215.19;;;18.81;49.68
77869;BME280;67231;59.144;37.934;2023-06-05T08:11:25;100223.22;;;19.36;48.79
77869;BME280;67231;59.144;37.934;2023-06-05T08:13:52;100227.53;;;19.17;48.81
77869;BME280;67231;59.144;37.934;2023-06-05T08:16:19;100220.72;;;18.73;49.50
77869;BME280;67231;59.144;37.934;2023-06-05T08:18:45;100222.97;;;17.93;50.71
77869;BME280;67231;59.144;37.934;2023-06-05T08:21:12;100223.94;;;17.20;51.82
77869;BME280;67231;59.144;37.934;2023-06-05T08:23:39;100223.03;;;16.77;53.07
77869;BME280;67231;59.144;37.934;2023-06-05T08:26:05;100226.56;;;16.92;53.22
77869;BME280;67231;59.144;37.934;2023-06-05T08:28:38;100224.66;;;17.72;52.33
77869;BME280;67231;59.144;37.934;2023-06-05T08:31:07;100220.47;;;19.23;50.05
77869;BME280;67231;59.144;37.934;2023-06-05T08:33:34;100221.06;;;20.52;48.03
77869;BME280;67231;59.144;37.934;2023-06-05T08:36:03;100218.34;;;21.36;45.91
77869;BME280;67231;59.144;37.934;2023-06-05T08:38:30;100219.34;;;20.58;45.85
77869;BME280;67231;59.144;37.934;2023-06-05T08:41:01;100213.50;;;19.55;46.61
77869;BME280;67231;59.144;37.934;2023-06-05T08:43:28;100212.56;;;18.95;48.25
77869;BME280;67231;59.144;37.934;2023-06-05T08:45:55;100205.16;;;18.62;48.52
77869;BME280;67231;59.144;37.934;2023-06-05T08:48:24;100206.72;;;18.84;48.51
77869;BME280;67231;59.144;37.934;2023-06-05T08:50:51;100202.50;;;19.30;47.70
77869;BME280;67231;59.144;37.934;2023-06-05T08:53:20;100206.63;;;19.26;47.46
77869;BME280;67231;59.144;37.934;2023-06-05T08:55:49;100201.47;;;19.44;47.26
77869;BME280;67231;59.144;37.934;2023-06-05T08:58:17;100197.13;;;19.23;47.10
77869;BME280;67231;59.144;37.934;2023-06-05T09:00:43;100196.66;;;19.13;47.25
77869;BME280;67231;59.144;37.934;2023-06-05T09:03:10;100192.13;;;19.07;46.75
77869;BME280;67231;59.144;37.934;2023-06-05T09:05:39;100190.72;;;19.51;47.07
77869;BME280;67231;59.144;37.934;2023-06-05T09:08:05;100189.69;;;19.65;46.25
77869;BME280;67231;59.144;37.934;2023-06-05T09:10:32;100183.66;;;19.50;46.39
77869;BME280;67231;59.144;37.934;2023-06-05T09:13:02;100174.97;;;19.48;46.36
77869;BME280;67231;59.144;37.934;2023-06-05T09:15:34;100174.16;;;19.41;46.52
77869;BME280;67231;59.144;37.934;2023-06-05T09:18:10;100165.84;;;19.22;46.35
77869;BME280;67231;59.144;37.934;2023-06-05T09:20:42;100160.28;;;19.31;46.91
77869;BME280;67231;59.144;37.934;2023-06-05T09:23:22;100171.25;;;19.49;46.40
77869;BME280;67231;59.144;37.934;2023-06-05T09:25:50;100159.63;;;19.75;45.28
77869;BME280;67231;59.144;37.934;2023-06-05T09:28:17;100166.91;;;19.75;45.04
77869;BME280;67231;59.144;37.934;2023-06-05T09:31:00;100173.53;;;19.79;45.06
77869;BME280;67231;59.144;37.934;2023-06-05T09:33:28;100157.13;;;20.07;44.84
77869;BME280;67231;59.144;37.934;2023-06-05T09:36:13;100160.84;;;20.13;44.88
77869;BME280;67231;59.144;37.934;2023-06-05T09:38:41;100156.47;;;20.18;44.48
77869;BME280;67231;59.144;37.934;2023-06-05T09:41:09;100158.16;;;20.13;44.66
77869;BME280;67231;59.144;37.934;2023-06-05T09:43:37;100161.91;;;20.05;44.34
77869;BME280;67231;59.144;37.934;2023-06-05T09:46:11;100154.91;;;19.84;44.43
77869;BME280;67231;59.144;37.934;2023-06-05T09:48:41;100158.41;;;19.64;44.77
77869;BME280;67231;59.144;37.934;2023-06-05T09:51:12;100159.03;;;19.67;44.44
77869;BME280;67231;59.144;37.934;2023-06-05T09:53:40;100146.84;;;19.84;44.57
77869;BME280;67231;59.144;37.934;2023-06-05T09:56:11;100158.22;;;19.86;43.41
77869;BME280;67231;59.144;37.934;2023-06-05T09:58:38;100167.75;;;19.55;44.27
77869;BME280;67231;59.144;37.934;2023-06-05T10:01:06;100161.53;;;19.35;44.25
77869;BME280;67231;59.144;37.934;2023-06-05T10:03:35;100162.66;;;18.79;44.79
77869;BME280;67231;59.144;37.934;2023-06-05T10:06:03;100162.84;;;18.22;45.41
77869;BME280;67231;59.144;37.934;2023-06-05T10:08:31;100168.84;;;17.89;46.30
77869;BME280;67231;59.144;37.934;2023-06-05T10:10:58;100191.31;;;17.60;46.62
77869;BME280;67231;59.144;37.934;2023-06-05T10:13:27;100208.06;;;17.19;48.09
77869;BME280;67231;59.144;37.934;2023-06-05T10:15:54;100220.66;;;16.37;50.87
77869;BME280;67231;59.144;37.934;2023-06-05T10:18:22;100216.63;;;15.73;53.19
77869;BME280;67231;59.144;37.934;2023-06-05T10:20:48;100213.19;;;15.18;54.77
77869;BME280;67231;59.144;37.934;2023-06-05T10:23:17;100217.81;;;15.01;56.15
77869;BME280;67231;59.144;37.934;2023-06-05T10:25:45;100211.19;;;15.20;56.75
77869;BME280;67231;59.144;37.934;2023-06-05T10:28:36;100222.25;;;15.55;56.68
77869;BME280;67231;59.144;37.934;2023-06-05T10:31:26;100222.88;;;16.04;56.59
77869;BME280;67231;59.144;37.934;2023-06-05T10:37:15;100215.25;;;16.82;53.88
77869;BME280;67231;59.144;37.934;2023-06-05T10:39:49;100212.13;;;16.93;52.26
77869;BME280;67231;59.144;37.934;2023-06-05T10:42:28;100201.19;;;16.95;51.39
77869;BME280;67231;59.144;37.934;2023-06-05T10:44:59;100204.88;;;17.08;50.76
77869;BME280;67231;59.144;37.934;2023-06-05T10:52:48;100212.06;;;16.42;51.30
77869;BME280;67231;59.144;37.934;2023-06-05T10:55:15;100210.22;;;16.27;51.49
77869;BME280;67231;59.144;37.934;2023-06-05T10:58:14;100207.75;;;16.26;51.79
77869;BME280;67231;59.144;37.934;2023-06-05T11:01:19;100211.63;;;16.23;52.00
77869;BME280;67231;59.144;37.934;2023-06-05T11:03:54;100202.28;;;16.34;51.80
77869;BME280;67231;59.144;37.934;2023-06-05T11:06:22;100200.72;;;16.39;51.63
77869;BME280;67231;59.144;37.934;2023-06-05T11:09:07;100199.78;;;16.32;51.42
77869;BME280;67231;59.144;37.934;2023-06-05T11:11:58;100203.50;;;16.31;51.57
77869;BME280;67231;59.144;37.934;2023-06-05T11:14:42;100202.03;;;16.44;50.76
77869;BME280;67231;59.144;37.934;2023-06-05T11:19:53;100194.31;;;17.28;49.98
77869;BME280;67231;59.144;37.934;2023-06-05T11:22:20;100203.19;;;17.51;49.03
77869;BME280;67231;59.144;37.934;2023-06-05T11:27:44;100201.84;;;17.40;49.52
77869;BME280;67231;59.144;37.934;2023-06-05T11:30:16;100197.00;;;17.50;48.96
77869;BME280;67231;59.144;37.934;2023-06-05T11:32:43;100187.50;;;17.26;48.72
77869;BME280;67231;59.144;37.934;2023-06-05T11:35:10;100194.66;;;17.19;48.54
77869;BME280;67231;59.144;37.934;2023-06-05T11:37:38;100187.44;;;17.19;49.33
77869;BME280;67231;59.144;37.934;2023-06-05T11:40:07;100189.81;;;17.29;48.41
77869;BME280;67231;59.144;37.934;2023-06-05T11:42:38;100187.50;;;17.26;48.54
77869;BME280;67231;59.144;37.934;2023-06-05T11:45:12;100193.81;;;17.61;48.13
77869;BME280;67231;59.144;37.934;2023-06-05T11:47:39;100191.66;;;17.50;47.64
77869;BME280;67231;59.144;37.934;2023-06-05T11:50:09;100188.19;;;17.35;48.12
77869;BME280;67231;59.144;37.934;2023-06-05T11:52:36;100188.78;;;17.08;48.49
77869;BME280;67231;59.144;37.934;2023-06-05T11:55:13;100186.78;;;16.96;48.98
77869;BME280;67231;59.144;37.934;2023-06-05T11:57:42;100181.81;;;17.14;49.31
77869;BME280;67231;59.144;37.934;2023-06-05T12:00:10;100175.75;;;17.27;49.04
77869;BME280;67231;59.144;37.934;2023-06-05T12:02:38;100177.28;;;17.36;48.80
77869;BME280;67231;59.144;37.934;2023-06-05T12:05:10;100183.28;;;17.38;48.76
77869;BME280;67231;59.144;37.934;2023-06-05T12:07:37;100183.50;;;17.37;48.36
77869;BME280;67231;59.144;37.934;2023-06-05T12:10:08;100180.03;;;17.21;49.08
77869;BME280;67231;59.144;37.934;2023-06-05T12:12:55;100175.75;;;17.27;48.88
77869;BME280;67231;59.144;37.934;2023-06-05T12:15:22;100180.91;;;17.28;49.44
77869;BME280;67231;59.144;37.934;2023-06-05T12:17:50;100186.22;;;17.22;49.20
77869;BME280;67231;59.144;37.934;2023-06-05T12:20:20;100190.22;;;16.89;49.92
77869;BME280;67231;59.144;37.934;2023-06-05T12:22:47;100183.94;;;16.82;50.03
77869;BME280;67231;59.144;37.934;2023-06-05T12:25:21;100174.97;;;16.90;49.96
77869;BME280;67231;59.144;37.934;2023-06-05T12:27:48;100167.03;;;16.97;49.56
77869;BME280;67231;59.144;37.934;2023-06-05T12:30:16;100178.81;;;17.02;49.91
77869;BME280;67231;59.144;37.934;2023-06-05T12:32:43;100169.09;;;17.01;49.77
77869;BME280;67231;59.144;37.934;2023-06-05T12:35:23;100165.53;;;17.16;49.90
77869;BME280;67231;59.144;37.934;2023-06-05T12:37:50;100163.31;;;17.19;49.57
77869;BME280;67231;59.144;37.934;2023-06-05T12:40:20;100163.75;;;17.23;49.03
77869;BME280;67231;59.144;37.934;2023-06-05T12:42:49;100162.59;;;17.32;48.70
77869;BME280;67231;59.144;37.934;2023-06-05T12:45:15;100168.13;;;17.52;48.55
77869;BME280;67231;59.144;37.934;2023-06-05T12:47:42;100160.38;;;17.64;47.85
77869;BME280;67231;59.144;37.934;2023-06-05T12:50:11;100156.50;;;17.73;47.20
77869;BME280;67231;59.144;37.934;2023-06-05T12:52:39;100159.19;;;17.73;47.11
77869;BME280;67231;59.144;37.934;2023-06-05T12:55:06;100157.63;;;17.57;46.50
77869;BME280;67231;59.144;37.934;2023-06-05T12:57:38;100159.06;;;17.32;46.83
77869;BME280;67231;59.144;37.934;2023-06-05T13:00:06;100151.75;;;17.19;46.67
77869;BME280;67231;59.144;37.934;2023-06-05T13:02:43;100154.38;;;17.34;46.68
77869;BME280;67231;59.144;37.934;2023-06-05T13:05:11;100152.59;;;17.47;46.54
77869;BME280;67231;59.144;37.934;2023-06-05T13:07:38;100157.50;;;17.37;46.10